• Join FlightAware (Why Join?)
  • Login
  • US Flag 
07:41PM EDT


 

Airport Tracker/Info


-or-


 

Live Flight TrackerFlight Track Log ✈ DAL3784 ✈ 15-Apr-2013 ✈ KATW - KDTW

Flight Track Log - Related Links

Times and Time Zones

All times are in EDT time to prevent confusion due to time zone crossing. See the DAL3784 flight status page for this flight to view local times or setup timezone preferences in your user account.

Time Position Orientation Groundspeed Altitude Reporting Facility
EDT Latitude Longitude Course Direction KTS MPH feet Rate Location/Type
05:26PM 44.2094 -88.3706 98° East 270 311 6,300  Level Chicago Center
05:27PM 44.1961 -88.2511 99° East 302 348 9,100 2,520 Climbing Chicago Center
05:28PM 44.1806 -88.1208 99° East 336 387 11,600 2,220 Climbing Chicago Center
05:29PM 44.1669 -87.9900 98° East 339 390 13,800 2,100 Climbing Chicago Center
05:30PM 44.1269 -87.7077 109° East  Level FlightAware Approximate
05:30PM 44.1511 -87.8511 99° East 355 409 16,000  Level Chicago Center
05:31PM 44.1353 -87.7097 99° East 363 418 17,700 1,800 Climbing Chicago Center
05:32PM 44.0792 -87.5642 118° Southeast 361 415 19,800 1,740 Climbing Minneapolis Center
05:33PM 44.0281 -87.4433 120° Southeast 359 413 21,400 1,320 Climbing Minneapolis Center
05:34PM 43.9747 -87.3206 121° Southeast 365 420 22,600 1,080 Climbing Minneapolis Center
05:35PM 43.9217 -87.2000 121° Southeast 376 433 23,700 1,020 Climbing Minneapolis Center
05:36PM 43.8650 -87.0686 121° Southeast 391 450 24,800 600 Climbing Minneapolis Center
05:37PM 43.7925 -86.9050 122° Southeast 408 470 25,000 60 Climbing Minneapolis Center
05:38PM 43.7283 -86.7581 121° Southeast 437 503 25,000  Level Minneapolis Center
05:39PM 43.6692 -86.5947 117° Southeast 474 545 25,000  Level Minneapolis Center
05:40PM 43.6189 -86.4231 112° Southeast 481 554 25,000  Level Minneapolis Center
05:41PM 43.5661 -86.2517 113° Southeast 485 558 25,000 -180 Level Chicago Center
05:42PM 43.5136 -86.0758 112° Southeast 492 566 24,700 -420 Descending Chicago Center
05:43PM 43.4594 -85.8983 113° Southeast 498 573 24,200 -540 Descending Chicago Center
05:44PM 43.4067 -85.7261 113° Southeast 488 562 23,700 -540 Descending Minneapolis Center
05:45PM 43.3417 -85.5208 113° Southeast 487 560 23,100 -360 Descending Chicago Center
05:46PM 43.2875 -85.3472 113° Southeast 491 565 23,000 -60 Descending Chicago Center
05:47PM 43.2453 -85.2008 112° Southeast 474 545 23,000  Level Cleveland Center
05:48PM 43.2086 -85.0186 105° East 484 557 23,000  Level Cleveland Center
05:49PM 43.1758 -84.8397 104° East 489 563 23,000  Level Cleveland Center
05:50PM 43.1447 -84.6611 103° East 484 557 23,000 -480 Level Cleveland Center
05:51PM 43.1092 -84.4853 105° East 479 551 22,100 -1,620 Descending Cleveland Center
05:52PM 43.0975 -84.4181 103° East 484 557 20,800 -3,000 Descending Chicago Center
05:52PM 43.0767 -84.3297 108° East 479 551 19,100 -3,060 Descending Cleveland Center
05:53PM 43.0464 -84.1686 104° East 458 527 15,900 -3,180 Descending Cleveland Center
05:54PM 43.0158 -84.0050 104° East 437 503 12,800 -2,760 Descending Cleveland Center
05:55PM 43.0050 -83.9475 104° East 368 423 12,100 -900 Descending Cleveland Center
05:55PM 42.9906 -83.8758 105° East 388 447 11,900 -120 Descending Cleveland Center
05:56PM 42.9447 -83.7969 128° Southeast 301 346 12,000 60 Climbing Cleveland Center
05:56PM 42.9222 -83.7872 162° South 274 315 12,000  Level Cleveland Center
05:57PM 42.8544 -83.7439 155° Southeast 274 315 12,000 -240 Level Cleveland Center
05:58PM 42.8031 -83.7158 158° South 273 314 11,600 -900 Descending Cleveland Center
05:58PM 42.7825 -83.7064 161° South 269 310 11,100 -1,320 Descending Cleveland Center
05:59PM 42.7358 -83.6672 148° Southeast 273 314 10,300 -1,320 Descending Cleveland Center
05:59PM 42.7194 -83.6467 137° Southeast 279 321 9,800 -1,200 Descending Cleveland Center
06:00PM 42.6769 -83.6022 142° Southeast 265 305 9,100 -1,200 Descending Cleveland Center
06:00PM 42.6567 -83.5786 139° Southeast 274 315 8,600 -1,200 Descending Cleveland Center
06:01PM 42.6183 -83.5317 138° Southeast 280 322 7,900 -1,200 Descending Cleveland Center
06:02PM 42.6003 -83.5000 128° Southeast 306 352 7,400 -1,440 Descending Cleveland Center
06:02PM 42.5664 -83.4447 130° Southeast 286 329 6,500 -1,200 Descending Cleveland Center
06:03PM 42.5464 -83.4072 126° Southeast 261 300 6,100 -540 Descending Cleveland Center
06:03PM 42.5225 -83.3667 129° Southeast 279 321 6,000 -120 Descending Cleveland Center
06:04PM 42.5106 -83.3408 122° Southeast 210 242 6,000 -600 Level Cleveland Center
06:04PM 42.4864 -83.3003 129° Southeast 247 284 5,400 -1,140 Descending Cleveland Center
06:05PM 42.4636 -83.2936 168° South 203 234 4,900 -1,020 Descending Cleveland Center
06:06PM 42.4097 -83.2831 172° South 192 221 4,000 -840 Descending Cleveland Center
06:07PM 42.3578 -83.2750 173° South 181 208 3,200 -660 Descending Cleveland Center
06:08PM 42.3156 -83.3014 205° Southwest 165 190 2,700 -660 Descending Cleveland Center
06:09PM 42.2792 -83.3336 213° Southwest 128 147 1,900 -780 Descending Cleveland Center
06:10PM 42.2369 -83.3597 205° Southwest 131 151 1,000 -780 Descending Cleveland Center